createdAt,value
2022-11-13T00:00:08.008Z,1015.00
2022-11-13T00:01:07.990Z,1014.99
2022-11-13T00:02:08.055Z,1014.99
2022-11-13T00:03:07.970Z,1014.99
2022-11-13T00:04:07.992Z,1014.99
2022-11-13T00:05:07.941Z,1014.98
2022-11-13T00:06:07.930Z,1014.97
2022-11-13T00:07:07.956Z,1014.96
2022-11-13T00:08:07.909Z,1014.95
2022-11-13T00:09:07.912Z,1014.94
2022-11-13T00:10:07.903Z,1014.93
2022-11-13T00:11:07.897Z,1014.92
2022-11-13T00:12:07.872Z,1014.91
2022-11-13T00:13:07.864Z,1014.90
2022-11-13T00:14:07.838Z,1014.90
2022-11-13T00:15:07.844Z,1014.89
2022-11-13T00:16:07.833Z,1014.88
2022-11-13T00:17:07.843Z,1014.86
2022-11-13T00:18:07.808Z,1014.85
2022-11-13T00:19:07.802Z,1014.84
2022-11-13T00:20:07.789Z,1014.82
2022-11-13T00:21:07.781Z,1014.81
2022-11-13T00:22:07.768Z,1014.81
2022-11-13T00:23:07.772Z,1014.81
2022-11-13T00:24:07.747Z,1014.80
2022-11-13T00:25:07.732Z,1014.81
2022-11-13T00:26:07.709Z,1014.81
2022-11-13T00:27:07.706Z,1014.79
2022-11-13T00:28:07.716Z,1014.78
2022-11-13T00:29:07.691Z,1014.77
2022-11-13T00:30:07.676Z,1014.78
2022-11-13T00:31:07.993Z,1014.77
2022-11-13T00:32:07.643Z,1014.77
2022-11-13T00:33:07.649Z,1014.75
2022-11-13T00:34:33.289Z,1014.74
2022-11-13T00:35:07.652Z,1014.73
2022-11-13T00:36:07.604Z,1014.72
2022-11-13T00:37:07.631Z,1014.71
2022-11-13T00:38:07.574Z,1014.69
2022-11-13T00:39:07.628Z,1014.68
2022-11-13T00:40:07.583Z,1014.66
2022-11-13T00:41:07.566Z,1014.65
2022-11-13T00:42:07.541Z,1014.63
2022-11-13T00:43:07.542Z,1014.61
2022-11-13T00:44:07.520Z,1014.60
2022-11-13T00:45:07.571Z,1014.61
2022-11-13T00:46:07.500Z,1014.61
2022-11-13T00:47:07.526Z,1014.62
2022-11-13T00:48:07.479Z,1014.63
2022-11-13T00:49:07.474Z,1014.64
2022-11-13T00:50:07.451Z,1014.63
2022-11-13T00:51:07.485Z,1014.63
2022-11-13T00:52:07.448Z,1014.63
2022-11-13T00:53:07.432Z,1014.63
2022-11-13T00:54:07.413Z,1014.62
2022-11-13T00:55:07.411Z,1014.61
2022-11-13T00:56:07.428Z,1014.60
2022-11-13T00:57:07.428Z,1014.59
2022-11-13T00:58:07.391Z,1014.58
2022-11-13T00:59:07.377Z,1014.57
2022-11-13T01:00:07.355Z,1014.57
2022-11-13T01:01:07.362Z,1014.58
2022-11-13T01:02:07.361Z,1014.59
2022-11-13T01:03:07.339Z,1014.59
2022-11-13T01:04:07.318Z,1014.60
2022-11-13T01:05:07.304Z,1014.60
2022-11-13T01:06:07.284Z,1014.60
2022-11-13T01:07:07.329Z,1014.60
2022-11-13T01:08:07.281Z,1014.60
2022-11-13T01:09:07.277Z,1014.60
2022-11-13T01:10:07.249Z,1014.59
2022-11-13T01:11:07.266Z,1014.60
2022-11-13T01:12:07.244Z,1014.59
2022-11-13T01:13:07.213Z,1014.57
2022-11-13T01:14:07.201Z,1014.56
2022-11-13T01:15:07.202Z,1014.56
2022-11-13T01:16:07.180Z,1014.55
2022-11-13T01:17:07.192Z,1014.55
2022-11-13T01:18:07.186Z,1014.55
2022-11-13T01:19:07.176Z,1014.54
2022-11-13T01:20:07.162Z,1014.54
2022-11-13T01:21:07.133Z,1014.54
2022-11-13T01:22:07.121Z,1014.54
2022-11-13T01:23:07.130Z,1014.54
2022-11-13T01:24:07.092Z,1014.54
2022-11-13T01:25:07.090Z,1014.54
2022-11-13T01:26:07.091Z,1014.53
2022-11-13T01:27:07.093Z,1014.53
2022-11-13T01:28:07.050Z,1014.53
2022-11-13T01:29:07.061Z,1014.53
2022-11-13T01:30:07.025Z,1014.53
2022-11-13T01:31:07.044Z,1014.52
2022-11-13T01:32:07.013Z,1014.53
2022-11-13T01:33:07.015Z,1014.53
2022-11-13T01:34:07.019Z,1014.54
2022-11-13T01:35:06.985Z,1014.54
2022-11-13T01:36:06.971Z,1014.54
2022-11-13T01:37:06.990Z,1014.52
2022-11-13T01:38:06.938Z,1014.50
2022-11-13T01:39:07.005Z,1014.48
2022-11-13T01:40:06.957Z,1014.47
2022-11-13T01:41:06.923Z,1014.48
2022-11-13T01:42:06.914Z,1014.48
2022-11-13T01:43:06.914Z,1014.48
2022-11-13T01:44:06.891Z,1014.49
2022-11-13T01:45:06.877Z,1014.49
2022-11-13T01:46:06.874Z,1014.48
2022-11-13T01:47:06.863Z,1014.47
2022-11-13T01:48:06.855Z,1014.46
2022-11-13T01:49:06.847Z,1014.45
2022-11-13T01:50:06.830Z,1014.44
2022-11-13T01:51:06.847Z,1014.44
2022-11-13T01:52:07.155Z,1014.43
2022-11-13T01:53:06.800Z,1014.42
2022-11-13T01:54:06.780Z,1014.41
2022-11-13T01:55:06.778Z,1014.39
2022-11-13T01:56:06.773Z,1014.37
2022-11-13T01:57:06.779Z,1014.37
2022-11-13T01:58:06.790Z,1014.35
2022-11-13T01:59:06.744Z,1014.34
2022-11-13T02:00:06.711Z,1014.33
2022-11-13T02:01:06.712Z,1014.30
2022-11-13T02:02:06.749Z,1014.29
2022-11-13T02:03:06.727Z,1014.27
2022-11-13T02:04:06.687Z,1014.26
2022-11-13T02:05:06.670Z,1014.24
2022-11-13T02:06:06.672Z,1014.23
2022-11-13T02:07:06.720Z,1014.22
2022-11-13T02:08:06.685Z,1014.21
2022-11-13T02:09:06.634Z,1014.20
2022-11-13T02:10:06.629Z,1014.20
2022-11-13T02:11:06.668Z,1014.20
2022-11-13T02:12:06.598Z,1014.18
2022-11-13T02:13:06.595Z,1014.18
2022-11-13T02:14:06.596Z,1014.19
2022-11-13T02:15:06.612Z,1014.18
2022-11-13T02:16:06.549Z,1014.17
2022-11-13T02:17:06.541Z,1014.16
2022-11-13T02:18:06.532Z,1014.14
2022-11-13T02:19:06.568Z,1014.13
2022-11-13T02:20:06.505Z,1014.10
2022-11-13T02:21:06.532Z,1014.08
2022-11-13T02:22:06.478Z,1014.05
2022-11-13T02:23:06.493Z,1014.02
2022-11-13T02:24:06.460Z,1014.00
2022-11-13T02:25:06.481Z,1013.99
2022-11-13T02:26:06.447Z,1013.99
2022-11-13T02:27:06.501Z,1013.99
2022-11-13T02:28:06.421Z,1013.99
2022-11-13T02:29:06.449Z,1013.99
2022-11-13T02:30:07.574Z,1013.98
2022-11-13T02:31:06.402Z,1013.97
2022-11-13T02:32:06.377Z,1013.96
2022-11-13T02:33:06.399Z,1013.96
2022-11-13T02:34:06.376Z,1013.96
2022-11-13T02:35:06.361Z,1013.97
2022-11-13T02:36:06.356Z,1013.98
2022-11-13T02:37:06.336Z,1013.98
2022-11-13T02:38:06.309Z,1013.98
2022-11-13T02:39:06.327Z,1013.97
2022-11-13T02:40:06.300Z,1013.95
2022-11-13T02:41:06.320Z,1013.94
2022-11-13T02:42:06.278Z,1013.92
2022-11-13T02:43:06.278Z,1013.91
2022-11-13T02:44:06.259Z,1013.91
2022-11-13T02:45:06.254Z,1013.90
2022-11-13T02:46:06.257Z,1013.90
2022-11-13T02:47:06.235Z,1013.90
2022-11-13T02:48:06.213Z,1013.89
2022-11-13T02:49:06.240Z,1013.89
2022-11-13T02:50:06.219Z,1013.88
2022-11-13T02:51:06.220Z,1013.87
2022-11-13T02:52:06.193Z,1013.87
2022-11-13T02:53:06.165Z,1013.86
2022-11-13T02:54:06.174Z,1013.87
2022-11-13T02:55:06.146Z,1013.86
2022-11-13T02:56:06.148Z,1013.86
2022-11-13T02:57:06.174Z,1013.86
2022-11-13T02:58:06.138Z,1013.85
2022-11-13T02:59:06.115Z,1013.83
2022-11-13T03:00:10.675Z,1013.82
2022-11-13T03:01:06.081Z,1013.82
2022-11-13T03:02:06.168Z,1013.83
2022-11-13T03:03:06.065Z,1013.83
2022-11-13T03:04:06.078Z,1013.83
2022-11-13T03:05:12.113Z,1013.82
2022-11-13T03:06:06.046Z,1013.81
2022-11-13T03:07:06.049Z,1013.80
2022-11-13T03:08:06.007Z,1013.79
2022-11-13T03:09:05.995Z,1013.77
2022-11-13T03:10:06.013Z,1013.75
2022-11-13T03:11:05.977Z,1013.73
2022-11-13T03:12:05.997Z,1013.73
2022-11-13T03:13:05.972Z,1013.72
2022-11-13T03:14:05.945Z,1013.71
2022-11-13T03:15:06.032Z,1013.71
2022-11-13T03:16:05.926Z,1013.70
2022-11-13T03:17:05.910Z,1013.69
2022-11-13T03:18:05.918Z,1013.68
2022-11-13T03:19:05.906Z,1013.66
2022-11-13T03:20:05.878Z,1013.64
2022-11-13T03:21:05.907Z,1013.63
2022-11-13T03:22:05.936Z,1013.62
2022-11-13T03:23:05.842Z,1013.62
2022-11-13T03:24:05.860Z,1013.62
2022-11-13T03:25:10.243Z,1013.61
2022-11-13T03:26:05.855Z,1013.62
2022-11-13T03:27:05.824Z,1013.61
2022-11-13T03:28:05.803Z,1013.61
2022-11-13T03:29:05.787Z,1013.61
2022-11-13T03:30:05.811Z,1013.61
2022-11-13T03:31:05.754Z,1013.61
2022-11-13T03:32:05.793Z,1013.60
2022-11-13T03:33:05.742Z,1013.59
2022-11-13T03:34:05.743Z,1013.59
2022-11-13T03:35:05.737Z,1013.58
2022-11-13T03:36:05.711Z,1013.58
2022-11-13T03:37:05.743Z,1013.60
2022-11-13T03:38:05.742Z,1013.61
2022-11-13T03:39:05.678Z,1013.61
2022-11-13T03:40:05.694Z,1013.61
2022-11-13T03:41:05.654Z,1013.61
2022-11-13T03:42:05.673Z,1013.60
2022-11-13T03:43:05.665Z,1013.59
2022-11-13T03:44:05.633Z,1013.58
2022-11-13T03:45:05.627Z,1013.57
2022-11-13T03:46:05.939Z,1013.54
2022-11-13T03:47:05.597Z,1013.52
2022-11-13T03:48:05.599Z,1013.50
2022-11-13T03:49:05.615Z,1013.47
2022-11-13T03:50:05.566Z,1013.46
2022-11-13T03:51:05.557Z,1013.45
2022-11-13T03:52:05.581Z,1013.45
2022-11-13T03:53:05.563Z,1013.45
2022-11-13T03:54:05.538Z,1013.45
2022-11-13T03:55:05.514Z,1013.45
2022-11-13T03:56:05.511Z,1013.43
2022-11-13T03:57:05.504Z,1013.42
2022-11-13T03:58:05.518Z,1013.41
2022-11-13T03:59:05.491Z,1013.41
2022-11-13T04:00:05.476Z,1013.40
2022-11-13T04:01:05.459Z,1013.39
2022-11-13T04:02:05.510Z,1013.37
2022-11-13T04:03:05.484Z,1013.35
2022-11-13T04:04:05.423Z,1013.33
2022-11-13T04:05:05.412Z,1013.32
2022-11-13T04:06:05.401Z,1013.31
2022-11-13T04:07:05.407Z,1013.29
2022-11-13T04:08:05.384Z,1013.28
2022-11-13T04:09:05.410Z,1013.28
2022-11-13T04:10:05.399Z,1013.27
2022-11-13T04:11:05.352Z,1013.27
2022-11-13T04:12:05.359Z,1013.27
2022-11-13T04:13:05.334Z,1013.26
2022-11-13T04:14:05.358Z,1013.25
2022-11-13T04:15:05.305Z,1013.24
2022-11-13T04:16:05.316Z,1013.25
2022-11-13T04:17:05.282Z,1013.25
2022-11-13T04:18:05.286Z,1013.24
2022-11-13T04:19:05.360Z,1013.25
2022-11-13T04:20:05.292Z,1013.24
2022-11-13T04:21:05.285Z,1013.24
2022-11-13T04:22:05.256Z,1013.22
2022-11-13T04:23:05.210Z,1013.22
2022-11-13T04:24:05.235Z,1013.20
2022-11-13T04:25:05.193Z,1013.18
2022-11-13T04:26:05.199Z,1013.17
2022-11-13T04:27:05.212Z,1013.16
2022-11-13T04:28:05.170Z,1013.14
2022-11-13T04:29:05.342Z,1013.13
2022-11-13T04:30:05.165Z,1013.12
2022-11-13T04:31:05.162Z,1013.11
2022-11-13T04:32:05.157Z,1013.10
2022-11-13T04:33:05.137Z,1013.09
2022-11-13T04:34:05.112Z,1013.08
2022-11-13T04:35:05.092Z,1013.07
2022-11-13T04:36:05.093Z,1013.05
2022-11-13T04:37:05.116Z,1013.04
2022-11-13T04:38:05.114Z,1013.04
2022-11-13T04:39:05.057Z,1013.02
2022-11-13T04:40:05.051Z,1013.01
2022-11-13T04:41:05.034Z,1013.00
2022-11-13T04:42:05.029Z,1012.99
2022-11-13T04:43:05.024Z,1012.98
2022-11-13T04:44:05.044Z,1012.97
2022-11-13T04:45:04.997Z,1012.95
2022-11-13T04:46:04.991Z,1012.94
2022-11-13T04:47:04.967Z,1012.94
2022-11-13T04:48:05.015Z,1012.95
2022-11-13T04:49:04.986Z,1012.95
2022-11-13T04:50:04.990Z,1012.95
2022-11-13T04:51:04.926Z,1012.95
2022-11-13T04:52:04.933Z,1012.96
2022-11-13T04:53:04.922Z,1012.94
2022-11-13T04:54:04.928Z,1012.94
2022-11-13T04:55:04.878Z,1012.94
2022-11-13T04:56:04.935Z,1012.94
2022-11-13T04:57:04.887Z,1012.93
2022-11-13T04:58:04.890Z,1012.92
2022-11-13T04:59:04.842Z,1012.90
2022-11-13T05:00:04.844Z,1012.88
2022-11-13T05:01:04.865Z,1012.86
2022-11-13T05:02:05.028Z,1012.84
2022-11-13T05:03:04.798Z,1012.83
2022-11-13T05:04:04.797Z,1012.81
2022-11-13T05:05:05.519Z,1012.80
2022-11-13T05:06:04.790Z,1012.79
2022-11-13T05:07:04.788Z,1012.79
2022-11-13T05:08:04.760Z,1012.80
2022-11-13T05:09:04.805Z,1012.82
2022-11-13T05:10:04.787Z,1012.82
2022-11-13T05:11:04.720Z,1012.83
2022-11-13T05:12:04.716Z,1012.84
2022-11-13T05:13:04.693Z,1012.83
2022-11-13T05:14:04.747Z,1012.83
2022-11-13T05:15:04.688Z,1012.82
2022-11-13T05:16:04.678Z,1012.81
2022-11-13T05:17:04.657Z,1012.81
2022-11-13T05:18:04.673Z,1012.81
2022-11-13T05:19:04.666Z,1012.81
2022-11-13T05:20:04.656Z,1012.80
2022-11-13T05:21:04.617Z,1012.80
2022-11-13T05:22:04.619Z,1012.79
2022-11-13T05:23:04.585Z,1012.78
2022-11-13T05:24:04.598Z,1012.76
2022-11-13T05:25:04.581Z,1012.76
2022-11-13T05:26:04.573Z,1012.74
2022-11-13T05:27:04.551Z,1012.72
2022-11-13T05:28:04.553Z,1012.72
2022-11-13T05:29:04.538Z,1012.71
2022-11-13T05:30:04.553Z,1012.71
2022-11-13T05:31:04.511Z,1012.71
2022-11-13T05:32:04.565Z,1012.70
2022-11-13T05:33:04.506Z,1012.69
2022-11-13T05:34:06.093Z,1012.68
2022-11-13T05:35:04.490Z,1012.66
2022-11-13T05:36:04.462Z,1012.65
2022-11-13T05:37:04.451Z,1012.63
2022-11-13T05:38:04.470Z,1012.62
2022-11-13T05:39:04.421Z,1012.63
2022-11-13T05:40:04.428Z,1012.63
2022-11-13T05:41:04.409Z,1012.64
2022-11-13T05:42:04.400Z,1012.64
2022-11-13T05:43:04.398Z,1012.64
2022-11-13T05:44:04.372Z,1012.63
2022-11-13T05:45:04.370Z,1012.61
2022-11-13T05:46:04.366Z,1012.61
2022-11-13T05:47:04.345Z,1012.60
2022-11-13T05:48:04.386Z,1012.59
2022-11-13T05:49:04.333Z,1012.58
2022-11-13T05:50:04.333Z,1012.57
2022-11-13T05:51:04.295Z,1012.56
2022-11-13T05:52:04.293Z,1012.54
2022-11-13T05:53:04.283Z,1012.51
2022-11-13T05:54:04.281Z,1012.50
2022-11-13T05:55:04.275Z,1012.48
2022-11-13T05:56:04.255Z,1012.47
2022-11-13T05:57:04.237Z,1012.46
2022-11-13T05:58:04.253Z,1012.45
2022-11-13T05:59:04.243Z,1012.45
2022-11-13T06:00:04.278Z,1012.43
2022-11-13T06:01:04.232Z,1012.41
2022-11-13T06:02:04.278Z,1012.39
2022-11-13T06:03:04.170Z,1012.37
2022-11-13T06:04:04.171Z,1012.37
2022-11-13T06:05:04.178Z,1012.38
2022-11-13T06:06:04.167Z,1012.38
2022-11-13T06:07:04.167Z,1012.38
2022-11-13T06:08:04.130Z,1012.38
2022-11-13T06:09:04.138Z,1012.36
2022-11-13T06:10:04.115Z,1012.34
2022-11-13T06:11:04.116Z,1012.32
2022-11-13T06:12:05.114Z,1012.31
2022-11-13T06:13:04.084Z,1012.30
2022-11-13T06:14:04.112Z,1012.29
2022-11-13T06:15:04.046Z,1012.28
2022-11-13T06:16:04.034Z,1012.28
2022-11-13T06:17:04.025Z,1012.27
2022-11-13T06:18:04.040Z,1012.25
2022-11-13T06:19:03.952Z,1012.25
2022-11-13T06:20:03.952Z,1012.25
2022-11-13T06:21:04.052Z,1012.25
2022-11-13T06:22:03.968Z,1012.24
2022-11-13T06:23:03.930Z,1012.23
2022-11-13T06:24:03.907Z,1012.22
2022-11-13T06:25:03.923Z,1012.21
2022-11-13T06:26:03.901Z,1012.20
2022-11-13T06:27:03.877Z,1012.19
2022-11-13T06:28:03.877Z,1012.19
2022-11-13T06:29:03.854Z,1012.19
2022-11-13T06:30:03.866Z,1012.21
2022-11-13T06:31:03.848Z,1012.21
2022-11-13T06:32:03.829Z,1012.20
2022-11-13T06:33:03.855Z,1012.19
2022-11-13T06:34:03.861Z,1012.18
2022-11-13T06:35:03.804Z,1012.18
2022-11-13T06:36:03.782Z,1012.18
2022-11-13T06:37:03.780Z,1012.18
2022-11-13T06:38:03.772Z,1012.17
2022-11-13T06:39:03.812Z,1012.17
2022-11-13T06:40:03.768Z,1012.16
2022-11-13T06:41:03.722Z,1012.16
2022-11-13T06:42:03.723Z,1012.16
2022-11-13T06:43:03.707Z,1012.17
2022-11-13T06:44:03.738Z,1012.17
2022-11-13T06:45:03.707Z,1012.17
2022-11-13T06:46:03.689Z,1012.17
2022-11-13T06:47:03.668Z,1012.16
2022-11-13T06:48:03.664Z,1012.15
2022-11-13T06:49:03.770Z,1012.15
2022-11-13T06:50:03.657Z,1012.13
2022-11-13T06:51:03.636Z,1012.12
2022-11-13T06:52:03.620Z,1012.12
2022-11-13T06:53:03.661Z,1012.12
2022-11-13T06:54:03.605Z,1012.13
2022-11-13T06:55:03.594Z,1012.14
2022-11-13T06:56:03.582Z,1012.14
2022-11-13T06:57:03.610Z,1012.12
2022-11-13T06:58:03.554Z,1012.11
2022-11-13T06:59:08.158Z,1012.10
2022-11-13T07:00:03.553Z,1012.09
2022-11-13T07:01:03.604Z,1012.08
2022-11-13T07:02:03.533Z,1012.05
2022-11-13T07:03:03.511Z,1012.05
2022-11-13T07:04:03.514Z,1012.05
2022-11-13T07:05:03.477Z,1012.06
2022-11-13T07:06:03.491Z,1012.06
2022-11-13T07:07:03.497Z,1012.08
2022-11-13T07:08:03.474Z,1012.07
2022-11-13T07:09:03.442Z,1012.07
2022-11-13T07:10:03.419Z,1012.07
2022-11-13T07:11:03.449Z,1012.08
2022-11-13T07:12:03.415Z,1012.07
2022-11-13T07:13:03.402Z,1012.07
2022-11-13T07:14:03.383Z,1012.06
2022-11-13T07:15:03.413Z,1012.05
2022-11-13T07:16:15.778Z,1012.06
2022-11-13T07:17:09.756Z,1012.05
2022-11-13T07:18:03.335Z,1012.05
2022-11-13T07:19:03.360Z,1012.05
2022-11-13T07:20:03.344Z,1012.05
2022-11-13T07:21:03.322Z,1012.06
2022-11-13T07:22:03.332Z,1012.06
2022-11-13T07:23:03.302Z,1012.05
2022-11-13T07:24:03.294Z,1012.04
2022-11-13T07:25:03.353Z,1012.02
2022-11-13T07:26:03.257Z,1012.02
2022-11-13T07:27:03.274Z,1012.00
2022-11-13T07:28:03.240Z,1011.98
2022-11-13T07:29:03.253Z,1011.98
2022-11-13T07:30:04.113Z,1011.99
2022-11-13T07:31:03.224Z,1011.99
2022-11-13T07:32:03.246Z,1011.99
2022-11-13T07:33:03.184Z,1011.99
2022-11-13T07:34:03.166Z,1011.98
2022-11-13T07:35:03.205Z,1011.97
2022-11-13T07:36:03.166Z,1011.96
2022-11-13T07:37:03.193Z,1011.96
2022-11-13T07:38:03.138Z,1011.94
2022-11-13T07:39:03.133Z,1011.94
2022-11-13T07:40:03.119Z,1011.93
2022-11-13T07:41:03.105Z,1011.93
2022-11-13T07:42:03.191Z,1011.94
2022-11-13T07:43:03.102Z,1011.94
2022-11-13T07:44:07.966Z,1011.93
2022-11-13T07:45:03.099Z,1011.92
2022-11-13T07:46:03.054Z,1011.90
2022-11-13T07:47:03.044Z,1011.90
2022-11-13T07:48:03.159Z,1011.90
2022-11-13T07:49:03.032Z,1011.90
2022-11-13T07:50:08.327Z,1011.91
2022-11-13T07:51:03.028Z,1011.91
2022-11-13T07:52:03.014Z,1011.90
2022-11-13T07:53:02.989Z,1011.88
2022-11-13T07:54:02.969Z,1011.88
2022-11-13T07:55:02.992Z,1011.87
2022-11-13T07:56:02.952Z,1011.87
2022-11-13T07:57:02.950Z,1011.87
2022-11-13T07:58:02.941Z,1011.87
2022-11-13T07:59:02.966Z,1011.87
2022-11-13T08:00:02.909Z,1011.87
2022-11-13T08:01:03.049Z,1011.85
2022-11-13T08:02:02.884Z,1011.84
2022-11-13T08:03:02.894Z,1011.83
2022-11-13T08:04:02.863Z,1011.83
2022-11-13T08:05:02.874Z,1011.83
2022-11-13T08:06:02.850Z,1011.83
2022-11-13T08:07:02.917Z,1011.81
2022-11-13T08:08:02.855Z,1011.80
2022-11-13T08:09:02.832Z,1011.78
2022-11-13T08:10:02.801Z,1011.77
2022-11-13T08:11:02.808Z,1011.78
2022-11-13T08:12:02.790Z,1011.78
2022-11-13T08:13:02.772Z,1011.79
2022-11-13T08:14:02.754Z,1011.79
2022-11-13T08:15:02.798Z,1011.77
2022-11-13T08:16:02.755Z,1011.76
2022-11-13T08:17:02.736Z,1011.75
2022-11-13T08:18:02.709Z,1011.75
2022-11-13T08:19:02.713Z,1011.75
2022-11-13T08:20:02.699Z,1011.74
2022-11-13T08:21:02.704Z,1011.73
2022-11-13T08:22:02.694Z,1011.73
2022-11-13T08:23:02.684Z,1011.71
2022-11-13T08:24:02.662Z,1011.70
2022-11-13T08:25:02.651Z,1011.70
2022-11-13T08:26:02.631Z,1011.69
2022-11-13T08:27:02.653Z,1011.68
2022-11-13T08:28:02.612Z,1011.68
2022-11-13T08:29:02.606Z,1011.66
2022-11-13T08:30:02.641Z,1011.65
2022-11-13T08:31:02.587Z,1011.65
2022-11-13T08:32:02.574Z,1011.66
2022-11-13T08:33:02.565Z,1011.64
2022-11-13T08:34:02.546Z,1011.63
2022-11-13T08:35:02.566Z,1011.64
2022-11-13T08:36:02.525Z,1011.63
2022-11-13T08:37:02.522Z,1011.63
2022-11-13T08:38:02.530Z,1011.63
2022-11-13T08:39:02.508Z,1011.63
2022-11-13T08:40:02.490Z,1011.63
2022-11-13T08:41:08.343Z,1011.62
2022-11-13T08:42:02.466Z,1011.63
2022-11-13T08:43:02.474Z,1011.62
2022-11-13T08:44:02.432Z,1011.62
2022-11-13T08:45:02.586Z,1011.63
2022-11-13T08:46:02.413Z,1011.62
2022-11-13T08:47:02.411Z,1011.62
2022-11-13T08:48:02.413Z,1011.62
2022-11-13T08:49:02.407Z,1011.62
2022-11-13T08:50:02.374Z,1011.60
2022-11-13T08:51:02.382Z,1011.60
2022-11-13T08:52:02.351Z,1011.60
2022-11-13T08:53:02.349Z,1011.59
2022-11-13T08:54:02.340Z,1011.60
2022-11-13T08:55:02.319Z,1011.60
2022-11-13T08:56:02.317Z,1011.59
2022-11-13T08:57:05.969Z,1011.58
2022-11-13T08:58:02.321Z,1011.58
2022-11-13T08:59:02.343Z,1011.57
2022-11-13T09:00:02.270Z,1011.57
2022-11-13T09:01:02.311Z,1011.55
2022-11-13T09:02:02.254Z,1011.55
2022-11-13T09:03:02.242Z,1011.54
2022-11-13T09:04:02.367Z,1011.53
2022-11-13T09:05:02.225Z,1011.52
2022-11-13T09:06:02.195Z,1011.52
2022-11-13T09:07:02.239Z,1011.51
2022-11-13T09:08:02.190Z,1011.49
2022-11-13T09:09:02.214Z,1011.47
2022-11-13T09:10:02.215Z,1011.46
2022-11-13T09:11:02.166Z,1011.47
2022-11-13T09:12:02.147Z,1011.47
2022-11-13T09:13:02.136Z,1011.47
2022-11-13T09:14:02.129Z,1011.49
2022-11-13T09:15:02.138Z,1011.49
2022-11-13T09:16:02.096Z,1011.50
2022-11-13T09:17:02.094Z,1011.50
2022-11-13T09:18:02.072Z,1011.50
2022-11-13T09:19:02.072Z,1011.49
2022-11-13T09:20:04.266Z,1011.49
2022-11-13T09:21:02.081Z,1011.50
2022-11-13T09:22:02.049Z,1011.49
2022-11-13T09:23:02.034Z,1011.51
2022-11-13T09:24:02.036Z,1011.51
2022-11-13T09:25:02.047Z,1011.51
2022-11-13T09:26:02.020Z,1011.50
2022-11-13T09:27:01.989Z,1011.52
2022-11-13T09:28:01.959Z,1011.53
2022-11-13T09:29:02.099Z,1011.52
2022-11-13T09:30:01.954Z,1011.51
2022-11-13T09:31:01.992Z,1011.52
2022-11-13T09:32:01.922Z,1011.52
2022-11-13T09:33:01.917Z,1011.52
2022-11-13T09:34:01.913Z,1011.51
2022-11-13T09:35:01.896Z,1011.50
2022-11-13T09:36:01.899Z,1011.48
2022-11-13T09:37:01.892Z,1011.47
2022-11-13T09:38:04.243Z,1011.46
2022-11-13T09:39:01.959Z,1011.47
2022-11-13T09:40:01.853Z,1011.46
2022-11-13T09:41:01.836Z,1011.46
2022-11-13T09:42:02.039Z,1011.46
2022-11-13T09:43:01.826Z,1011.45
2022-11-13T09:44:01.799Z,1011.44
2022-11-13T09:45:01.796Z,1011.44
2022-11-13T09:46:01.819Z,1011.44
2022-11-13T09:47:01.808Z,1011.42
2022-11-13T09:48:01.805Z,1011.42
2022-11-13T09:49:01.745Z,1011.41
2022-11-13T09:50:01.729Z,1011.39
2022-11-13T09:51:01.734Z,1011.36
2022-11-13T09:52:06.367Z,1011.34
2022-11-13T09:53:01.733Z,1011.31
2022-11-13T09:54:01.715Z,1011.31
2022-11-13T09:55:01.682Z,1011.29
2022-11-13T09:56:01.665Z,1011.27
2022-11-13T09:57:01.671Z,1011.26
2022-11-13T09:58:01.662Z,1011.25
2022-11-13T09:59:01.679Z,1011.23
2022-11-13T10:00:01.621Z,1011.22
2022-11-13T10:01:01.723Z,1011.21
2022-11-13T10:02:01.622Z,1011.20
2022-11-13T10:03:01.601Z,1011.19
2022-11-13T10:04:04.175Z,1011.19
2022-11-13T10:05:01.570Z,1011.18
2022-11-13T10:06:01.552Z,1011.19
2022-11-13T10:07:01.679Z,1011.19
2022-11-13T10:08:01.545Z,1011.19
2022-11-13T10:09:01.532Z,1011.18
2022-11-13T10:10:01.549Z,1011.17
2022-11-13T10:11:01.514Z,1011.17
2022-11-13T10:12:01.529Z,1011.17
2022-11-13T10:13:01.481Z,1011.16
2022-11-13T10:14:01.469Z,1011.17
2022-11-13T10:15:01.485Z,1011.17
2022-11-13T10:16:01.489Z,1011.17
2022-11-13T10:17:01.479Z,1011.16
2022-11-13T10:18:01.430Z,1011.15
2022-11-13T10:19:01.424Z,1011.14
2022-11-13T10:20:01.416Z,1011.12
2022-11-13T10:21:05.532Z,1011.11
2022-11-13T10:22:26.351Z,1011.07
2022-11-13T10:23:01.445Z,1011.04
2022-11-13T10:24:01.377Z,1011.01
2022-11-13T10:25:01.347Z,1010.98
2022-11-13T10:26:01.360Z,1010.96
2022-11-13T10:27:01.342Z,1010.96
2022-11-13T10:28:15.824Z,1010.96
2022-11-13T10:29:01.425Z,1010.96
2022-11-13T10:30:01.308Z,1010.94
2022-11-13T10:31:01.318Z,1010.91
2022-11-13T10:32:01.307Z,1010.89
2022-11-13T10:33:01.289Z,1010.87
2022-11-13T10:34:01.285Z,1010.87
2022-11-13T10:35:01.254Z,1010.90
2022-11-13T10:36:01.256Z,1010.91
2022-11-13T10:37:01.304Z,1010.91
2022-11-13T10:38:06.616Z,1010.95
2022-11-13T10:39:01.227Z,1010.92
2022-11-13T10:40:01.219Z,1010.91
2022-11-13T10:41:01.189Z,1010.89
2022-11-13T10:42:01.196Z,1010.89
2022-11-13T10:43:01.200Z,1010.87
2022-11-13T10:44:01.170Z,1010.85
2022-11-13T10:45:01.177Z,1010.82
2022-11-13T10:46:01.129Z,1010.79
2022-11-13T10:47:01.222Z,1010.78
2022-11-13T10:48:05.300Z,1010.78
2022-11-13T10:49:01.098Z,1010.79
2022-11-13T10:50:01.095Z,1010.78
2022-11-13T10:51:01.086Z,1010.76
2022-11-13T10:52:01.068Z,1010.73
2022-11-13T10:53:01.064Z,1010.70
2022-11-13T10:54:01.073Z,1010.68
2022-11-13T10:55:01.065Z,1010.67
2022-11-13T10:56:01.036Z,1010.66
2022-11-13T10:57:01.130Z,1010.64
2022-11-13T10:58:00.996Z,1010.61
2022-11-13T10:59:01.013Z,1010.58
2022-11-13T11:00:01.021Z,1010.56
2022-11-13T11:01:01.076Z,1010.52
2022-11-13T11:02:00.961Z,1010.51
2022-11-13T11:03:01.085Z,1010.50
2022-11-13T11:04:00.945Z,1010.48
2022-11-13T11:05:00.949Z,1010.50
2022-11-13T11:06:00.921Z,1010.49
2022-11-13T11:08:01.026Z,1010.53
2022-11-13T11:09:00.906Z,1010.54
2022-11-13T11:10:00.912Z,1010.51
2022-11-13T11:11:00.878Z,1010.50
2022-11-13T11:12:00.875Z,1010.48
2022-11-13T11:13:00.864Z,1010.47
2022-11-13T11:14:00.854Z,1010.44
2022-11-13T11:15:00.834Z,1010.41
2022-11-13T11:16:00.821Z,1010.39
2022-11-13T11:17:00.830Z,1010.38
2022-11-13T11:18:00.812Z,1010.36
2022-11-13T11:19:00.790Z,1010.34
2022-11-13T11:20:00.779Z,1010.33
2022-11-13T11:21:00.781Z,1010.30
2022-11-13T11:22:00.768Z,1010.29
2022-11-13T11:23:00.773Z,1010.29
2022-11-13T11:24:00.758Z,1010.28
2022-11-13T11:25:00.733Z,1010.27
2022-11-13T11:26:00.744Z,1010.27
2022-11-13T11:27:00.726Z,1010.27
2022-11-13T11:28:00.807Z,1010.26
2022-11-13T11:29:00.706Z,1010.25
2022-11-13T11:30:00.681Z,1010.26
2022-11-13T11:31:00.671Z,1010.25
2022-11-13T11:32:00.660Z,1010.25
2022-11-13T11:33:00.662Z,1010.23
2022-11-13T11:34:00.665Z,1010.22
2022-11-13T11:35:00.631Z,1010.23
2022-11-13T11:36:00.733Z,1010.23
2022-11-13T11:37:00.642Z,1010.23
2022-11-13T11:38:00.598Z,1010.23
2022-11-13T11:39:00.629Z,1010.23
2022-11-13T11:40:00.602Z,1010.21
2022-11-13T11:41:00.571Z,1010.21
2022-11-13T11:42:00.587Z,1010.21
2022-11-13T11:43:00.541Z,1010.21
2022-11-13T11:44:00.543Z,1010.20
2022-11-13T11:45:00.541Z,1010.19
2022-11-13T11:46:00.569Z,1010.17
2022-11-13T11:47:00.523Z,1010.18
2022-11-13T11:48:00.490Z,1010.16
2022-11-13T11:49:00.519Z,1010.15
2022-11-13T11:50:00.476Z,1010.15
2022-11-13T11:51:00.470Z,1010.13
2022-11-13T11:52:00.451Z,1010.11
2022-11-13T11:53:00.444Z,1010.09
2022-11-13T11:54:00.499Z,1010.09
2022-11-13T11:55:00.443Z,1010.09
2022-11-13T11:56:00.422Z,1010.09
2022-11-13T11:57:00.397Z,1010.08
2022-11-13T11:58:00.403Z,1010.06
2022-11-13T11:59:00.379Z,1010.04
2022-11-13T12:00:00.379Z,1010.01
2022-11-13T12:01:00.345Z,1010.00
2022-11-13T12:02:00.360Z,1009.98
2022-11-13T12:03:00.329Z,1009.96
2022-11-13T12:04:00.345Z,1009.95
2022-11-13T12:05:00.384Z,1009.93
2022-11-13T12:06:00.385Z,1009.94